Time;durP1;ratioP1;P1;durP2;ratioP2;P2;SDS_P1;SDS_P2;PMS_P1;PMS_P2;Temp;Humidity;BMP_temperature;BMP_pressure;BME280_temperature;BME280_humidity;BME280_pressure;Samples;Min_cycle;Max_cycle;Signal;HPM_P1;HPM_P2
2022/10/05 00:01:26;;;;;;;5.22;4.50;;;17.90;99.90;;;18.29;73.23;101556.75;5034442;28;20055;-75
2022/10/05 00:04:02;;;;;;;11.97;4.63;;;17.90;99.90;;;18.18;73.34;101561.50;5034640;28;20045;-75
2022/10/05 00:06:30;;;;;;;4.60;3.85;;;17.80;99.90;;;18.16;73.04;101544.59;5034420;28;20360;-75
2022/10/05 00:09:01;;;;;;;5.55;4.13;;;17.80;99.90;;;18.21;73.03;101550.75;5034231;28;20103;-75
2022/10/05 00:11:29;;;;;;;;;;;17.80;99.90;;;18.24;72.59;101545.31;5034672;28;20041;-75
2022/10/05 00:13:58;;;;;;;4.15;3.75;;;17.90;99.90;;;18.22;72.61;101533.75;5034113;28;20374;-74
2022/10/05 00:16:26;;;;;;;4.43;4.03;;;17.80;99.90;;;18.13;72.53;101527.75;5034287;28;20095;-75
2022/10/05 00:18:55;;;;;;;5.07;3.88;;;17.80;99.90;;;18.16;72.30;101523.19;5034567;28;20041;-74
2022/10/05 00:21:27;;;;;;;8.20;3.97;;;17.80;99.90;;;18.06;72.08;101526.13;5034030;28;20040;-75
2022/10/05 00:24:02;;;;;;;5.78;3.70;;;17.70;99.90;;;18.02;71.80;101542.25;5033932;28;20042;-74
2022/10/05 00:26:33;;;;;;;4.53;3.42;;;17.70;99.90;;;18.09;71.88;101544.78;5034124;28;20061;-74
2022/10/05 00:29:06;;;;;;;4.20;3.80;;;17.70;99.90;;;18.01;71.68;101512.84;5034237;28;20050;-74
2022/10/05 00:31:36;;;;;;;6.43;4.20;;;17.80;99.90;;;18.19;71.41;101525.81;5034200;28;20045;-74
2022/10/05 00:34:04;;;;;;;4.82;3.78;;;17.80;99.90;;;18.20;71.18;101513.25;5032856;28;20041;-75
2022/10/05 00:36:33;;;;;;;7.85;3.92;;;17.80;99.90;;;18.21;70.89;101523.97;5032414;28;20049;-75
2022/10/05 00:39:04;;;;;;;3.80;3.50;;;17.80;99.90;;;18.29;70.74;101519.25;5032449;28;20068;-75
2022/10/05 00:41:46;;;;;;;4.05;3.45;;;17.90;99.90;;;18.30;70.52;101520.16;5033953;28;20300;-74
2022/10/05 00:44:36;;;;;;;7.07;3.55;;;17.90;99.90;;;18.22;70.28;101515.00;5032652;28;20128;-74
2022/10/05 00:47:18;;;;;;;8.57;3.60;;;17.90;99.90;;;18.28;70.18;101512.16;5033855;28;20054;-74
2022/10/05 00:50:28;;;;;;;6.60;3.85;;;17.90;99.90;;;18.24;69.95;101494.41;5033843;28;20055;-74
2022/10/05 00:53:05;;;;;;;5.45;3.65;;;17.90;99.90;;;18.31;69.91;101496.00;5017915;28;20092;-74
2022/10/05 00:55:50;;;;;;;5.35;4.00;;;17.90;99.90;;;18.27;69.95;101494.34;5033764;28;20073;-75
2022/10/05 00:58:33;;;;;;;4.82;3.47;;;17.90;99.90;;;18.34;69.98;101484.34;5033449;28;20080;-74
2022/10/05 01:01:10;;;;;;;4.40;3.53;;;17.90;99.90;;;17.66;70.08;101398.63;5033996;28;20056;-74
2022/10/05 01:03:51;;;;;;;3.90;3.38;;;17.90;99.90;;;17.60;70.30;101361.31;5033682;28;20044;-74
2022/10/05 01:06:24;;;;;;;;;;;17.90;99.90;;;18.28;70.39;101482.69;5032801;28;20398;-74
2022/10/05 01:09:03;;;;;;;6.55;3.40;;;17.90;99.90;;;18.19;70.12;101453.50;5032349;28;19976;-74
2022/10/05 01:11:40;;;;;;;4.63;3.22;;;17.80;99.90;;;18.23;70.15;101460.53;5033544;28;20049;-74
2022/10/05 01:14:18;;;;;;;4.97;3.35;;;17.80;99.90;;;18.25;70.31;101452.44;5033530;28;20119;-75
2022/10/05 01:16:56;;;;;;;4.97;3.65;;;17.80;99.90;;;18.23;70.60;101455.16;5033389;28;20052;-74
2022/10/05 01:19:50;;;;;;;6.57;3.70;;;17.90;99.90;;;18.17;70.86;101449.97;5033218;28;20068;-74
2022/10/05 01:22:38;;;;;;;7.90;4.50;;;17.80;99.90;;;18.19;71.17;101456.16;5048772;28;20049;-74
2022/10/05 01:25:22;;;;;;;5.00;3.95;;;17.80;99.90;;;18.23;71.24;101457.84;5031683;28;20089;-74
2022/10/05 01:28:02;;;;;;;5.78;4.20;;;17.90;99.90;;;18.14;71.46;101458.06;5033344;28;20049;-74
2022/10/05 01:30:38;;;;;;;8.55;4.03;;;17.80;99.90;;;18.15;71.86;101461.63;5032084;28;20051;-74
2022/10/05 01:33:16;;;;;;;5.70;4.53;;;17.80;99.90;;;18.07;72.17;101453.81;5048651;28;20046;-74
2022/10/05 01:35:55;;;;;;;7.25;5.22;;;17.80;99.90;;;18.02;72.80;101472.66;5033245;28;20072;-74
2022/10/05 01:38:41;;;;;;;6.90;5.30;;;17.70;99.90;;;18.11;72.80;101450.13;5033030;28;20128;-74
2022/10/05 01:41:25;;;;;;;6.35;4.80;;;17.80;99.90;;;18.14;72.86;101452.72;5033284;28;20072;-74
2022/10/05 01:44:01;;;;;;;6.53;5.68;;;17.70;99.90;;;18.12;73.09;101430.44;5033235;28;20124;-73
2022/10/05 01:46:36;;;;;;;7.10;5.25;;;17.70;99.90;;;18.07;73.36;101426.13;5048583;28;20144;-73
2022/10/05 01:49:32;;;;;;;7.00;5.40;;;17.70;99.90;;;18.02;73.66;101410.22;5032954;28;20047;-74
2022/10/05 01:52:23;;;;;;;7.75;5.10;;;17.70;99.90;;;18.01;73.67;101408.44;5033163;28;20116;-74
2022/10/05 01:55:09;;;;;;;7.13;4.88;;;17.60;99.90;;;17.93;74.00;101424.72;5033113;28;20083;-74
2022/10/05 01:57:56;;;;;;;6.47;5.07;;;17.60;99.90;;;17.91;74.06;101426.53;5048038;28;20046;-74
2022/10/05 02:00:26;;;;;;;6.97;5.60;;;17.50;99.90;;;17.94;74.16;101402.34;5033278;28;20048;-74
2022/10/05 02:02:59;;;;;;;5.28;4.82;;;17.60;99.90;;;17.96;74.16;101386.28;5033071;28;20141;-73
2022/10/05 02:05:37;;;;;;;8.68;5.13;;;17.60;99.90;;;17.78;74.25;101376.94;5033042;28;20057;-75
2022/10/05 02:08:12;;;;;;;6.88;4.82;;;17.60;99.90;;;17.90;73.98;101397.16;5031720;28;20068;-74
2022/10/05 02:10:44;;;;;;;6.10;5.22;;;17.50;99.90;;;17.78;74.30;101370.69;5033817;28;20053;-74
2022/10/05 02:13:18;;;;;;;6.22;4.95;;;17.50;99.90;;;17.93;74.20;101386.34;5036770;28;20368;-74
2022/10/05 02:15:53;;;;;;;5.30;4.70;;;17.60;99.90;;;17.88;74.06;101370.44;5035354;28;20080;-74
2022/10/05 02:18:27;;;;;;;10.73;5.18;;;17.60;99.90;;;17.83;74.02;101376.78;5036688;28;20052;-74
2022/10/05 02:20:58;;;;;;;9.38;5.25;;;17.50;99.90;;;17.86;74.16;101385.66;5036220;28;20128;-75
2022/10/05 02:23:32;;;;;;;6.13;5.32;;;17.50;99.90;;;17.91;73.95;101388.19;5036534;28;20099;-72
2022/10/05 02:26:02;;;;;;;7.82;5.45;;;17.60;99.90;;;17.81;74.19;101387.53;5036533;28;20071;-74
2022/10/05 02:28:37;;;;;;;12.20;5.40;;;17.60;99.90;;;17.87;74.39;101386.50;5035191;28;20041;-74
2022/10/05 02:31:11;;;;;;;6.88;5.13;;;17.60;99.90;;;17.91;74.18;101388.19;5035134;28;20053;-74
2022/10/05 02:33:40;;;;;;;7.00;5.70;;;17.60;99.90;;;17.91;74.49;101382.81;5035147;28;20112;-75
2022/10/05 02:36:18;;;;;;;6.15;5.57;;;17.50;99.90;;;17.90;74.58;101367.69;5035088;28;20046;-74
2022/10/05 02:39:00;;;;;;;9.07;5.75;;;17.50;99.90;;;17.90;74.63;101381.94;5051688;28;20050;-74
2022/10/05 02:41:42;;;;;;;11.05;5.97;;;17.50;99.90;;;17.88;74.88;101362.41;5036297;28;20100;-75
2022/10/05 02:44:21;;;;;;;7.30;5.68;;;17.60;99.90;;;17.88;75.05;101378.47;5051522;28;20072;-74
2022/10/05 02:46:59;;;;;;;7.40;5.60;;;17.50;99.90;;;17.85;74.74;101377.63;5051512;28;20115;-74
2022/10/05 02:49:39;;;;;;;6.35;5.22;;;17.50;99.90;;;17.86;74.99;101376.72;5034874;28;20042;-74
2022/10/05 02:52:14;;;;;;;6.60;5.18;;;17.50;99.90;;;17.86;74.92;101380.28;5036086;28;20124;-74
2022/10/05 02:54:53;;;;;;;7.30;5.75;;;17.50;99.90;;;17.85;75.00;101381.19;5034734;28;20147;-74
2022/10/05 02:57:28;;;;;;;7.35;5.65;;;17.50;99.90;;;17.81;74.89;101373.28;5035911;28;20136;-74
2022/10/05 03:00:06;;;;;;;7.65;5.82;;;17.50;99.90;;;17.71;75.17;101350.38;5034634;28;20055;-75
2022/10/05 03:02:44;;;;;;;8.48;5.93;;;17.50;99.90;;;17.88;74.95;101374.88;5034625;28;20052;-74
2022/10/05 03:05:21;;;;;;;6.68;5.68;;;17.50;99.90;;;17.90;74.64;101386.44;5034610;28;20103;-74
2022/10/05 03:07:58;;;;;;;8.23;5.70;;;17.50;99.90;;;17.90;74.83;101376.59;5034473;28;20430;-74
2022/10/05 03:10:35;;;;;;;7.53;5.57;;;17.50;99.90;;;17.89;74.66;101371.28;5034470;28;20053;-74
2022/10/05 03:13:12;;;;;;;7.80;6.25;;;17.50;99.90;;;17.95;74.58;101368.44;5034392;28;20046;-75
2022/10/05 03:16:02;;;;;;;8.80;6.22;;;17.60;99.90;;;17.84;74.42;101357.16;5034228;28;20099;-75
2022/10/05 03:18:52;;;;;;;6.53;5.78;;;17.50;99.90;;;17.90;74.43;101360.53;5034260;28;20099;-75
2022/10/05 03:21:51;;;;;;;6.75;5.45;;;17.50;99.90;;;17.86;74.37;101360.66;5032774;28;20065;-75
2022/10/05 03:24:43;;;;;;;8.63;5.97;;;17.60;99.90;;;17.75;74.27;101363.59;5050604;28;20057;-75
2022/10/05 03:27:25;;;;;;;10.90;6.20;;;17.40;99.90;;;17.73;74.49;101353.88;5050723;28;20049;-75
2022/10/05 03:30:04;;;;;;;9.07;7.47;;;17.40;99.90;;;17.84;74.44;101346.44;5034158;28;20049;-74
2022/10/05 03:32:46;;;;;;;8.68;6.68;;;17.40;99.90;;;17.76;74.63;101343.09;5033772;28;20050;-74
2022/10/05 03:35:21;;;;;;;;;;;17.40;99.90;;;17.83;74.70;101358.94;5034467;28;20049;-76
2022/10/05 03:38:03;;;;;;;7.40;6.38;;;17.50;99.90;;;17.67;74.62;101322.78;5050568;28;19928;-75
2022/10/05 03:40:40;;;;;;;8.65;6.80;;;17.40;99.90;;;17.87;74.67;101355.25;5050510;28;20049;-75
2022/10/05 03:43:55;;;;;;;9.73;7.30;;;17.50;99.90;;;17.86;74.59;101352.63;5033864;28;20067;-75
2022/10/05 03:46:39;;;;;;;7.38;6.60;;;17.60;99.90;;;17.78;74.56;101341.25;5048005;28;20510;-75
2022/10/05 03:49:17;;;;;;;9.30;7.25;;;17.50;99.90;;;17.69;74.63;101341.50;5033684;28;20145;-75
2022/10/05 03:51:52;;;;;;;13.95;6.80;;;17.50;99.90;;;17.79;74.28;101345.66;5035034;28;20483;-75
2022/10/05 03:54:26;;;;;;;6.88;6.25;;;17.40;99.90;;;17.78;74.62;101344.81;5033617;28;20079;-74
2022/10/05 03:56:58;;;;;;;8.85;6.32;;;17.40;99.90;;;17.73;74.66;101343.19;5033512;28;20565;-75
2022/10/05 03:59:31;;;;;;;7.53;6.25;;;17.40;99.90;;;17.76;74.61;101343.09;5050147;28;20495;-75
2022/10/05 04:02:06;;;;;;;6.85;6.15;;;17.40;99.90;;;17.75;74.50;101350.22;5033491;28;20095;-75
2022/10/05 04:04:39;;;;;;;8.32;6.10;;;17.40;99.90;;;17.54;74.31;101324.03;5033424;28;20506;-75
2022/10/05 04:07:27;;;;;;;7.45;6.80;;;17.40;99.90;;;17.72;74.62;101342.28;5050014;28;20053;-75
2022/10/05 04:09:57;;;;;;;9.32;6.75;;;17.30;99.90;;;17.81;74.69;101343.81;5049882;28;20501;-75
2022/10/05 04:12:30;;;;;;;7.80;6.68;;;17.40;99.90;;;17.79;74.50;101351.91;5034500;28;20077;-75
2022/10/05 04:15:04;;;;;;;7.50;6.15;;;17.50;99.90;;;17.81;74.59;101343.81;5049865;28;20041;-75
2022/10/05 04:17:36;;;;;;;7.85;6.10;;;17.40;99.90;;;17.80;74.66;101342.09;5049684;28;20414;-75
2022/10/05 04:20:14;;;;;;;6.82;5.95;;;17.40;99.90;;;17.70;74.61;101336.09;5032840;28;20085;-75
2022/10/05 04:22:56;;;;;;;7.15;5.40;;;17.40;99.90;;;17.70;74.79;101330.75;5033148;28;20052;-75
2022/10/05 04:25:29;;;;;;;6.80;6.20;;;17.40;99.90;;;17.75;74.76;101333.31;5034290;28;20056;-75
2022/10/05 04:28:06;;;;;;;9.57;5.40;;;17.40;99.90;;;17.71;74.56;101323.63;5032950;28;20062;-75
2022/10/05 04:30:41;;;;;;;6.13;5.32;;;17.40;99.90;;;17.67;74.76;101316.59;5034241;28;20041;-75
2022/10/05 04:33:12;;;;;;;6.30;5.70;;;17.40;99.90;;;17.72;74.49;101317.31;5049176;28;20079;-75
2022/10/05 04:36:00;;;;;;;7.68;5.93;;;17.30;99.90;;;17.51;74.45;101280.44;5032887;28;20144;-75
2022/10/05 04:38:56;;;;;;;6.20;5.20;;;17.40;99.90;;;17.74;74.73;101311.03;5049307;28;20045;-75
2022/10/05 04:41:48;;;;;;;6.35;5.75;;;17.40;99.90;;;17.72;74.51;101311.97;5049295;28;20049;-74
2022/10/05 04:44:35;;;;;;;10.23;5.78;;;17.40;99.90;;;17.68;74.75;101303.16;5032707;28;20057;-76
2022/10/05 04:47:22;;;;;;;7.30;5.38;;;17.40;99.90;;;17.60;74.57;101293.56;5049210;28;20056;-75
2022/10/05 04:50:15;;;;;;;5.50;4.97;;;17.30;99.90;;;17.58;74.65;101319.47;5049192;28;20557;-74
2022/10/05 04:53:06;;;;;;;5.10;4.70;;;17.30;99.90;;;17.56;74.69;101299.91;5049157;28;20049;-75
2022/10/05 04:55:46;;;;;;;5.13;4.55;;;17.20;99.90;;;17.50;75.16;101294.75;5049130;28;20054;-75
2022/10/05 04:58:26;;;;;;;6.57;4.55;;;17.20;99.90;;;17.42;74.88;101289.53;5032448;28;20115;-75
2022/10/05 05:01:13;;;;;;;6.15;4.50;;;17.10;99.90;;;17.39;75.07;101272.69;5032428;28;20046;-75
2022/10/05 05:04:02;;;;;;;6.80;4.75;;;17.10;99.90;;;17.30;75.01;101299.66;5032333;28;20041;-76
2022/10/05 05:06:39;;;;;;;6.35;4.22;;;17.00;99.90;;;17.33;75.16;101288.88;5032356;28;20073;-75
2022/10/05 05:09:42;;;;;;;4.68;4.10;;;17.00;99.90;;;17.36;75.05;101272.78;5048933;28;20049;-76
2022/10/05 05:12:24;;;;;;;5.10;4.60;;;17.00;99.90;;;17.38;75.14;101297.69;4998249;28;20056;-75
2022/10/05 05:15:12;;;;;;;5.75;4.10;;;17.00;99.90;;;17.36;74.95;101264.75;5033572;28;20045;-75
2022/10/05 05:18:02;;;;;;;4.35;3.95;;;17.00;99.90;;;17.44;74.88;101268.13;5032057;28;20095;-76
2022/10/05 05:20:48;;;;;;;4.68;3.85;;;17.00;99.90;;;17.46;74.59;101268.94;5033471;28;20418;-75
2022/10/05 05:23:26;;;;;;;4.57;4.18;;;17.10;99.90;;;17.54;74.41;101273.19;5048652;28;20454;-75
2022/10/05 05:26:07;;;;;;;4.85;4.20;;;17.20;99.90;;;17.50;74.57;101270.66;5048302;28;20103;-74
2022/10/05 05:28:48;;;;;;;4.25;3.95;;;17.10;99.90;;;17.52;74.45;101275.03;5033408;28;20052;-75
2022/10/05 05:31:27;;;;;;;4.32;3.92;;;17.20;99.90;;;17.43;74.33;101250.28;5032014;28;20136;-76
2022/10/05 05:34:05;;;;;;;5.35;4.45;;;17.20;99.90;;;17.54;74.34;101275.00;5033307;28;20139;-75
2022/10/05 05:36:49;;;;;;;4.55;3.70;;;17.20;99.90;;;17.58;74.44;101282.91;5048565;28;20132;-76
2022/10/05 05:39:26;;;;;;;9.32;4.18;;;17.20;99.90;;;17.57;74.43;101280.28;5048515;28;20053;-76
2022/10/05 05:42:11;;;;;;;5.13;3.55;;;17.20;99.90;;;17.54;74.37;101283.91;5031951;28;20048;-75
2022/10/05 05:44:47;;;;;;;4.93;4.53;;;17.20;99.90;;;17.52;74.60;101271.47;5048935;28;20051;-75
2022/10/05 05:47:20;;;;;;;5.00;3.85;;;17.20;99.90;;;17.44;74.57;101246.72;5037200;28;20045;-75
2022/10/05 05:50:19;;;;;;;5.38;4.72;;;17.20;99.90;;;17.53;74.78;101275.94;5036143;28;20053;-76
2022/10/05 05:52:55;;;;;;;4.30;3.90;;;17.20;99.90;;;17.53;74.68;101278.59;5036882;28;20132;-75
2022/10/05 05:55:29;;;;;;;6.00;4.90;;;17.20;99.90;;;17.56;74.74;101271.38;5052169;28;20046;-76
2022/10/05 05:58:11;;;;;;;8.73;4.65;;;17.20;99.90;;;17.55;74.92;101279.44;5035401;28;20144;-75
2022/10/05 06:00:49;;;;;;;7.03;4.50;;;17.20;99.90;;;17.59;75.07;101267.75;5035806;28;20495;-74
2022/10/05 06:03:25;;;;;;;8.52;5.15;;;17.20;99.90;;;17.06;75.08;101203.13;5052252;28;20049;-74
2022/10/05 06:05:58;;;;;;;5.57;4.43;;;17.20;99.90;;;17.42;75.19;101233.34;5035323;28;20569;-75
2022/10/05 06:08:38;;;;;;;6.15;4.72;;;17.20;99.90;;;17.42;75.31;101243.22;5035294;28;20049;-75
2022/10/05 06:11:22;;;;;;;7.13;4.95;;;17.20;99.90;;;17.57;75.20;101280.28;5052092;28;20067;-75
2022/10/05 06:13:51;;;;;;;7.60;4.82;;;17.20;99.90;;;17.52;75.60;101279.50;5035466;28;20495;-74
2022/10/05 06:16:25;;;;;;;7.40;4.35;;;17.20;99.90;;;17.60;75.51;101282.84;5035381;28;20049;-74
2022/10/05 06:18:59;;;;;;;4.85;4.47;;;17.20;99.90;;;17.57;75.52;101277.59;5051811;28;20046;-74
2022/10/05 06:21:34;;;;;;;4.88;4.15;;;17.20;99.90;;;17.51;75.86;101273.28;5036560;28;20042;-74
2022/10/05 06:24:11;;;;;;;5.85;4.80;;;17.20;99.90;;;17.39;76.18;101276.25;5051806;28;20045;-74
2022/10/05 06:27:16;;;;;;;6.05;5.45;;;17.10;99.90;;;17.39;76.53;101286.06;5036429;28;20092;-72
2022/10/05 06:30:04;;;;;;;8.25;4.70;;;17.10;99.90;;;17.43;76.48;101285.94;5051791;28;20049;-72
2022/10/05 06:32:56;;;;;;;4.97;4.53;;;17.10;99.90;;;17.43;76.78;101280.59;5051739;28;20052;-74
2022/10/05 06:35:43;;;;;;;6.10;4.38;;;17.10;99.90;;;17.46;76.78;101280.50;5035032;28;20053;-75
2022/10/05 06:38:42;;;;;;;5.13;4.60;;;17.10;99.90;;;17.46;76.96;101277.84;5051597;28;20045;-73
2022/10/05 06:41:19;;;;;;;5.72;4.97;;;17.10;99.90;;;17.53;76.60;101278.59;5029537;28;20148;-74
2022/10/05 06:43:57;;;;;;;5.22;4.20;;;17.20;99.90;;;17.46;76.66;101268.94;5036020;28;20543;-75
2022/10/05 06:46:55;;;;;;;7.50;5.28;;;17.20;99.90;;;17.48;76.91;101285.84;5036115;28;20077;-73
2022/10/05 06:49:53;;;;;;;5.88;5.38;;;17.10;99.90;;;17.51;76.81;101285.78;5051462;28;20049;-74
2022/10/05 06:53:05;;;;;;;5.43;4.90;;;17.20;99.90;;;17.38;76.77;101279.81;5034724;28;20502;-71
2022/10/05 06:55:45;;;;;;;5.68;4.93;;;17.10;99.90;;;17.51;76.64;101277.75;5034520;28;20495;-82
2022/10/05 06:58:31;;;;;;;5.20;4.65;;;17.10;99.90;;;17.56;76.73;101291.88;5035829;28;20041;-80
2022/10/05 07:01:05;;;;;;;5.10;4.70;;;17.20;99.90;;;17.52;76.79;101279.50;5051157;28;20140;-79
2022/10/05 07:03:50;;;;;;;6.25;4.82;;;17.20;99.90;;;17.54;76.64;101285.69;5034542;28;20045;-77
2022/10/05 07:06:25;;;;;;;5.50;4.90;;;17.20;99.90;;;17.61;76.87;101287.31;5034514;28;20081;-74
2022/10/05 07:09:14;;;;;;;7.25;4.80;;;17.30;99.90;;;17.67;76.70;101281.78;5034424;28;20045;-71
2022/10/05 07:12:16;;;;;;;6.40;5.07;;;17.30;99.90;;;17.67;76.62;101279.97;5034423;28;20049;-81
2022/10/05 07:15:07;;;;;;;5.50;5.00;;;17.30;99.90;;;17.59;76.33;101283.78;5034156;28;20045;-79
2022/10/05 07:17:50;;;;;;;5.38;4.78;;;17.30;99.90;;;17.65;76.55;101273.78;5034053;28;20222;-75
2022/10/05 07:20:28;;;;;;;5.75;5.05;;;17.30;99.90;;;17.70;76.61;101279.03;5034113;28;20053;-77
2022/10/05 07:23:29;;;;;;;5.35;4.90;;;17.30;99.90;;;17.71;76.46;101275.44;5034219;28;20107;-79
2022/10/05 07:26:05;;;;;;;5.40;4.78;;;17.30;99.90;;;17.74;76.55;101268.19;5033917;28;20060;-88
2022/10/05 07:28:44;;;;;;;9.75;4.88;;;17.40;99.90;;;17.72;76.27;101266.47;5033959;28;20092;-76
2022/10/05 07:31:24;;;;;;;7.80;5.00;;;17.40;99.90;;;17.65;76.45;101267.56;5034011;28;20491;-78
2022/10/05 07:34:01;;;;;;;5.40;4.90;;;17.30;99.90;;;17.60;76.78;101277.50;5033829;28;20491;-71
2022/10/05 07:39:36;;;;;;;5.55;4.90;;;17.30;99.90;;;17.63;76.82;101277.44;5050337;28;20048;-71
2022/10/05 07:42:43;;;;;;;6.45;4.75;;;17.30;99.90;;;17.54;76.88;101277.66;5033838;28;20408;-77
2022/10/05 07:45:29;;;;;;;7.35;5.07;;;17.20;99.90;;;17.58;76.85;101264.19;5050183;28;20047;-74
2022/10/05 07:48:09;;;;;;;6.35;5.00;;;17.20;99.90;;;17.60;76.80;101280.19;5033789;28;20446;-76
2022/10/05 07:50:49;;;;;;;5.97;5.38;;;17.30;99.90;;;17.57;77.07;101274.94;5034006;28;20049;-75
2022/10/05 07:53:23;;;;;;;5.53;4.93;;;17.20;99.90;;;17.61;76.90;101260.56;5034723;28;20053;-75
2022/10/05 07:55:56;;;;;;;5.50;5.00;;;17.20;99.90;;;17.59;76.87;101267.75;5033638;28;20100;-76
2022/10/05 07:58:32;;;;;;;7.10;5.18;;;17.30;99.90;;;17.59;76.88;101268.63;5034759;28;20056;-76
2022/10/05 08:01:18;;;;;;;5.30;4.47;;;17.30;99.90;;;17.58;76.90;101268.63;5049954;28;20533;-76
2022/10/05 08:03:53;;;;;;;7.82;5.40;;;17.20;99.90;;;17.58;77.31;101265.97;5049957;28;20262;-77
2022/10/05 08:06:43;;;;;;;4.85;4.45;;;17.20;99.90;;;17.60;76.96;101264.13;5034425;28;20042;-82
2022/10/05 08:09:35;;;;;;;8.15;5.03;;;17.30;99.90;;;17.59;77.10;101265.06;5033921;28;20403;-75
2022/10/05 08:12:31;;;;;;;5.90;4.50;;;17.20;99.90;;;17.56;77.21;101274.03;5034207;28;20045;-73
2022/10/05 08:15:06;;;;;;;5.82;4.90;;;17.20;99.90;;;17.62;77.28;101254.25;5034532;28;20132;-73
2022/10/05 08:17:50;;;;;;;6.15;4.70;;;17.20;99.90;;;17.65;77.19;101251.53;5034148;28;20044;-75
2022/10/05 08:20:33;;;;;;;5.97;4.50;;;17.30;99.90;;;17.65;77.03;101256.88;5033102;28;20046;-75
2022/10/05 08:23:15;;;;;;;7.75;5.20;;;17.30;99.90;;;17.65;77.00;101256.88;5034154;28;20049;-80
2022/10/05 08:25:54;;;;;;;6.53;5.18;;;17.30;99.90;;;17.57;76.75;101259.75;5049552;28;20550;-74
2022/10/05 08:28:28;;;;;;;5.80;4.70;;;17.20;99.90;;;17.39;76.87;101209.38;5034215;28;20056;-74
2022/10/05 08:31:04;;;;;;;10.40;4.35;;;17.30;99.90;;;17.58;77.29;101245.44;5034161;28;20103;-84
2022/10/05 08:33:45;;;;;;;6.60;5.40;;;17.20;99.90;;;17.63;77.10;101246.22;5035069;28;20048;-78
2022/10/05 08:36:15;;;;;;;7.55;4.40;;;17.30;99.90;;;17.73;77.13;101255.72;5033826;28;20080;-74
2022/10/05 08:38:44;;;;;;;6.20;4.72;;;17.30;99.90;;;17.72;77.20;101239.72;5033733;28;20467;-76
2022/10/05 08:42:19;;;;;;;4.90;4.40;;;17.40;99.90;;;17.73;76.98;101230.78;5034010;28;20430;-75
2022/10/05 08:45:44;;;;;;;6.40;4.72;;;17.40;99.90;;;17.78;76.80;101242.22;5020220;28;20053;-75
2022/10/05 08:49:03;;;;;;;7.10;4.47;;;17.40;99.90;;;17.85;76.77;101233.97;5033870;28;20099;-75
2022/10/05 08:52:35;;;;;;;5.53;3.83;;;17.50;99.90;;;17.89;76.25;101232.97;5033793;28;20041;-77
2022/10/05 08:55:52;;;;;;;5.50;4.32;;;17.50;99.90;;;17.85;76.29;101228.63;5008626;28;20499;-77
2022/10/05 08:59:15;;;;;;;6.38;4.30;;;17.50;99.90;;;17.95;76.33;101235.47;5018767;28;20053;-74
2022/10/05 09:02:14;;;;;;;5.43;4.22;;;17.60;99.90;;;17.95;75.97;101234.59;5031226;28;20148;-81
2022/10/05 09:05:09;;;;;;;7.03;4.20;;;17.60;99.90;;;17.95;75.43;101221.22;5033265;28;20049;-78
2022/10/05 09:08:25;;;;;;;4.57;3.85;;;17.60;99.90;;;17.99;75.76;101210.38;5033339;28;20132;-81
2022/10/05 09:11:05;;;;;;;7.45;4.50;;;17.60;99.90;;;18.05;75.45;101214.69;5000695;28;20053;-78
2022/10/05 09:13:56;;;;;;;;;;;17.70;99.90;;;17.89;74.62;101208.88;5034039;28;20061;-81
2022/10/05 09:16:55;;;;;;;6.32;4.20;;;17.60;99.90;;;17.90;74.99;101212.44;5033199;28;20275;-80
2022/10/05 09:19:53;;;;;;;8.23;4.00;;;17.60;99.90;;;17.90;74.83;101223.16;5032174;28;20079;-77
2022/10/05 09:22:37;;;;;;;8.15;4.28;;;17.50;99.90;;;17.95;74.70;101218.53;5033351;28;20041;-75
2022/10/05 09:25:21;;;;;;;12.88;4.93;;;17.60;99.90;;;17.88;74.36;101207.16;5032970;28;20056;-75
2022/10/05 09:27:56;;;;;;;6.32;4.15;;;17.60;99.90;;;17.95;74.63;101216.75;5033116;28;20055;-74
2022/10/05 09:30:38;;;;;;;4.30;3.90;;;17.60;99.90;;;17.91;74.64;101206.16;5033545;28;20049;-77
2022/10/05 09:33:52;;;;;;;7.55;4.07;;;17.60;99.90;;;17.91;73.91;101206.16;5032988;28;20038;-75
2022/10/05 09:37:13;;;;;;;5.15;4.18;;;17.60;99.90;;;17.96;73.99;101221.16;5032976;28;20049;-77
2022/10/05 09:40:26;;;;;;;;;;;17.60;99.90;;;17.93;74.05;101207.88;5033306;28;20045;-79
2022/10/05 09:43:43;;;;;;;4.80;3.80;;;17.60;99.90;;;17.83;74.22;101233.16;5004224;28;19943;-87
2022/10/05 09:46:44;;;;;;;6.45;3.90;;;17.50;99.90;;;17.82;74.02;101219.81;5015829;28;20057;-82
2022/10/05 09:50:19;;;;;;;4.60;4.20;;;17.50;99.90;;;17.86;74.40;101211.66;5032818;28;20045;-84
2022/10/05 09:53:26;;;;;;;6.57;3.92;;;17.50;99.90;;;17.98;73.99;101218.47;4977645;28;20390;-75
2022/10/05 09:56:19;;;;;;;5.97;3.95;;;17.60;99.90;;;17.95;74.16;101223.88;5032752;28;20452;-73
2022/10/05 09:59:50;;;;;;;4.18;3.78;;;17.60;99.90;;;17.90;74.60;101220.47;5032814;28;20045;-79
2022/10/05 10:02:37;;;;;;;4.15;3.40;;;17.50;99.90;;;17.82;74.44;101210.00;4998132;28;20415;-80
2022/10/05 10:05:38;;;;;;;5.88;3.97;;;17.60;99.90;;;18.04;74.28;101212.91;5031985;28;20076;-69
2022/10/05 10:08:35;;;;;;;5.70;3.80;;;17.60;99.90;;;18.08;74.55;101209.22;5032759;28;20108;-75
2022/10/05 10:11:28;;;;;;;4.43;3.65;;;17.70;99.90;;;18.11;74.07;101202.91;5048353;28;20045;-74
2022/10/05 10:14:24;;;;;;;6.60;3.85;;;17.70;99.90;;;18.11;74.13;101206.47;5032693;28;20567;-72
2022/10/05 10:17:30;;;;;;;4.03;3.63;;;17.70;99.90;;;18.08;74.09;101198.50;5032615;28;20042;-74
2022/10/05 10:20:26;;;;;;;5.97;4.32;;;17.70;99.90;;;18.05;73.80;101198.59;5015292;28;20060;-78
2022/10/05 10:23:16;;;;;;;5.63;4.03;;;17.70;99.90;;;18.16;74.41;101200.94;5033048;28;20551;-70
2022/10/05 10:26:33;;;;;;;7.75;5.32;;;17.80;99.90;;;18.03;74.46;101201.34;5032713;28;20574;-73
2022/10/05 10:29:44;;;;;;;7.55;5.63;;;17.70;99.90;;;18.07;74.65;101191.41;5020293;28;20075;-74
2022/10/05 10:32:44;;;;;;;6.47;5.75;;;17.70;99.90;;;18.09;74.95;101189.56;5035428;28;20064;-70
2022/10/05 10:35:30;;;;;;;8.52;5.25;;;17.70;99.90;;;17.97;75.04;101200.63;5034109;28;20520;-72
2022/10/05 10:38:33;;;;;;;9.20;5.32;;;17.60;99.90;;;17.81;75.17;101164.53;5036626;28;20050;-69
2022/10/05 10:41:58;;;;;;;8.82;5.53;;;17.70;99.90;;;17.96;75.47;101177.47;5035838;28;20060;-72
2022/10/05 10:44:57;;;;;;;9.05;5.50;;;17.60;99.90;;;17.94;75.70;101176.66;5035964;28;20056;-70
2022/10/05 10:47:44;;;;;;;9.00;5.72;;;17.60;99.90;;;18.02;75.77;101204.06;5036253;28;20045;-69
2022/10/05 10:51:09;;;;;;;10.27;5.90;;;17.60;99.90;;;18.07;75.83;101194.09;5035862;28;20049;-69
2022/10/05 10:54:28;;;;;;;9.30;5.53;;;17.70;99.90;;;18.01;75.95;101200.50;5006824;28;20079;-71
2022/10/05 10:57:05;;;;;;;9.05;5.50;;;17.70;99.90;;;18.06;76.04;101188.78;5036212;28;20042;-69
2022/10/05 11:00:27;;;;;;;6.50;5.30;;;17.70;99.90;;;18.12;75.83;101210.88;5035608;28;20506;-73
2022/10/05 11:03:46;;;;;;;6.93;5.53;;;17.70;99.90;;;18.11;76.16;101198.44;5036194;28;20052;-70
2022/10/05 11:06:41;;;;;;;8.70;5.00;;;17.80;99.90;;;18.13;76.20;101193.03;5035508;28;20041;-70
2022/10/05 11:09:51;;;;;;;7.45;5.55;;;17.80;99.90;;;18.17;76.23;101192.91;5035776;28;20120;-71
2022/10/05 11:12:59;;;;;;;9.75;6.25;;;17.80;99.90;;;18.16;76.06;101183.09;5035350;28;20045;-71
2022/10/05 11:16:19;;;;;;;9.18;5.88;;;17.80;99.90;;;18.20;76.08;101203.50;5018944;28;20046;-70
2022/10/05 11:19:19;;;;;;;9.25;5.53;;;17.80;99.90;;;18.16;75.85;101196.47;5035351;28;20045;-71
2022/10/05 11:22:08;;;;;;;10.05;6.00;;;17.80;99.90;;;18.19;75.92;101192.84;5034257;28;20137;-70
2022/10/05 11:25:09;;;;;;;11.60;5.95;;;17.80;99.90;;;18.23;76.09;101194.50;5035098;28;20077;-70
2022/10/05 11:28:00;;;;;;;8.65;6.22;;;17.90;99.90;;;18.21;75.85;101170.47;5033122;28;20057;-70
2022/10/05 11:31:30;;;;;;;9.25;5.75;;;17.90;99.90;;;18.27;76.28;101189.03;5035114;28;20045;-69
2022/10/05 11:34:43;;;;;;;7.88;5.82;;;17.90;99.90;;;18.29;75.87;101176.44;4974228;28;20051;-73